sensor_id;sensor_type;location;lat;lon;timestamp;pressure;altitude;pressure_sealevel;temperature
75822;BMP180;64454;51.984;9.838;2023-02-25T00:00:04;98581.00;;;4.70
75822;BMP180;64454;51.984;9.838;2023-02-25T00:02:35;98589.00;;;4.80
75822;BMP180;64454;51.984;9.838;2023-02-25T00:05:03;98588.00;;;4.60
75822;BMP180;64454;51.984;9.838;2023-02-25T00:07:31;98595.00;;;4.60
75822;BMP180;64454;51.984;9.838;2023-02-25T00:10:00;98594.00;;;4.80
75822;BMP180;64454;51.984;9.838;2023-02-25T00:12:27;98586.00;;;4.70
75822;BMP180;64454;51.984;9.838;2023-02-25T00:14:54;98592.00;;;4.70
75822;BMP180;64454;51.984;9.838;2023-02-25T00:17:21;98595.00;;;4.70
75822;BMP180;64454;51.984;9.838;2023-02-25T00:19:48;98597.00;;;4.60
75822;BMP180;64454;51.984;9.838;2023-02-25T00:22:15;98599.00;;;4.70
75822;BMP180;64454;51.984;9.838;2023-02-25T00:24:42;98603.00;;;4.60
75822;BMP180;64454;51.984;9.838;2023-02-25T00:27:10;98595.00;;;4.70
75822;BMP180;64454;51.984;9.838;2023-02-25T00:29:37;98605.00;;;4.60
75822;BMP180;64454;51.984;9.838;2023-02-25T00:32:03;98601.00;;;4.70
75822;BMP180;64454;51.984;9.838;2023-02-25T00:34:30;98608.00;;;4.70
75822;BMP180;64454;51.984;9.838;2023-02-25T00:36:57;98611.00;;;4.70
75822;BMP180;64454;51.984;9.838;2023-02-25T00:39:24;98605.00;;;4.90
75822;BMP180;64454;51.984;9.838;2023-02-25T00:42:06;98600.00;;;4.80
75822;BMP180;64454;51.984;9.838;2023-02-25T00:44:35;98596.00;;;4.80
75822;BMP180;64454;51.984;9.838;2023-02-25T00:47:03;98599.00;;;4.80
75822;BMP180;64454;51.984;9.838;2023-02-25T00:49:30;98608.00;;;4.80
75822;BMP180;64454;51.984;9.838;2023-02-25T00:51:57;98604.00;;;5.00
75822;BMP180;64454;51.984;9.838;2023-02-25T00:54:24;98605.00;;;4.80
75822;BMP180;64454;51.984;9.838;2023-02-25T00:56:51;98596.00;;;4.90
75822;BMP180;64454;51.984;9.838;2023-02-25T00:59:18;98605.00;;;5.00
75822;BMP180;64454;51.984;9.838;2023-02-25T01:01:47;98604.00;;;4.80
75822;BMP180;64454;51.984;9.838;2023-02-25T01:04:16;98605.00;;;4.90
75822;BMP180;64454;51.984;9.838;2023-02-25T01:06:44;98605.00;;;4.80
75822;BMP180;64454;51.984;9.838;2023-02-25T01:09:11;98595.00;;;4.90
75822;BMP180;64454;51.984;9.838;2023-02-25T01:11:40;98612.00;;;4.90
75822;BMP180;64454;51.984;9.838;2023-02-25T01:14:13;98614.00;;;4.80
75822;BMP180;64454;51.984;9.838;2023-02-25T01:16:43;98607.00;;;5.00
75822;BMP180;64454;51.984;9.838;2023-02-25T01:19:16;98621.00;;;4.90
75822;BMP180;64454;51.984;9.838;2023-02-25T01:21:47;98621.00;;;5.00
75822;BMP180;64454;51.984;9.838;2023-02-25T01:24:18;98607.00;;;5.00
75822;BMP180;64454;51.984;9.838;2023-02-25T01:26:49;98601.00;;;5.00
75822;BMP180;64454;51.984;9.838;2023-02-25T01:29:21;98606.00;;;5.00
75822;BMP180;64454;51.984;9.838;2023-02-25T01:31:51;98616.00;;;4.90
75822;BMP180;64454;51.984;9.838;2023-02-25T01:34:21;98613.00;;;5.00
75822;BMP180;64454;51.984;9.838;2023-02-25T01:36:48;98607.00;;;4.80
75822;BMP180;64454;51.984;9.838;2023-02-25T01:39:19;98611.00;;;4.80
75822;BMP180;64454;51.984;9.838;2023-02-25T01:41:49;98620.00;;;4.50
75822;BMP180;64454;51.984;9.838;2023-02-25T01:44:21;98623.00;;;4.80
75822;BMP180;64454;51.984;9.838;2023-02-25T01:46:51;98611.00;;;4.50
75822;BMP180;64454;51.984;9.838;2023-02-25T01:49:25;98627.00;;;4.60
75822;BMP180;64454;51.984;9.838;2023-02-25T01:51:57;98617.00;;;4.70
75822;BMP180;64454;51.984;9.838;2023-02-25T01:54:26;98615.00;;;4.60
75822;BMP180;64454;51.984;9.838;2023-02-25T01:56:55;98609.00;;;4.60
75822;BMP180;64454;51.984;9.838;2023-02-25T01:59:27;98616.00;;;4.70
75822;BMP180;64454;51.984;9.838;2023-02-25T02:01:54;98612.00;;;4.60
75822;BMP180;64454;51.984;9.838;2023-02-25T02:04:24;98616.00;;;4.50
75822;BMP180;64454;51.984;9.838;2023-02-25T02:06:53;98625.00;;;4.40
75822;BMP180;64454;51.984;9.838;2023-02-25T02:09:25;98629.00;;;4.50
75822;BMP180;64454;51.984;9.838;2023-02-25T02:11:52;98634.00;;;4.40
75822;BMP180;64454;51.984;9.838;2023-02-25T02:14:30;98632.00;;;4.50
75822;BMP180;64454;51.984;9.838;2023-02-25T02:17:19;98639.00;;;4.50
75822;BMP180;64454;51.984;9.838;2023-02-25T02:20:07;98637.00;;;4.60
75822;BMP180;64454;51.984;9.838;2023-02-25T02:22:47;98641.00;;;4.50
75822;BMP180;64454;51.984;9.838;2023-02-25T02:25:55;98636.00;;;4.70
75822;BMP180;64454;51.984;9.838;2023-02-25T02:32:11;98643.00;;;4.60
75822;BMP180;64454;51.984;9.838;2023-02-25T02:34:47;98652.00;;;4.60
75822;BMP180;64454;51.984;9.838;2023-02-25T02:37:28;98649.00;;;4.60
75822;BMP180;64454;51.984;9.838;2023-02-25T02:40:10;98656.00;;;4.70
75822;BMP180;64454;51.984;9.838;2023-02-25T02:42:50;98656.00;;;4.80
75822;BMP180;64454;51.984;9.838;2023-02-25T02:45:24;98657.00;;;4.80
75822;BMP180;64454;51.984;9.838;2023-02-25T02:48:01;98655.00;;;4.70
75822;BMP180;64454;51.984;9.838;2023-02-25T02:50:35;98658.00;;;4.60
75822;BMP180;64454;51.984;9.838;2023-02-25T02:53:07;98673.00;;;4.70
75822;BMP180;64454;51.984;9.838;2023-02-25T02:55:39;98670.00;;;4.80
75822;BMP180;64454;51.984;9.838;2023-02-25T02:58:12;98661.00;;;4.70
75822;BMP180;64454;51.984;9.838;2023-02-25T03:00:45;98681.00;;;4.80
75822;BMP180;64454;51.984;9.838;2023-02-25T03:03:21;98675.00;;;4.80
75822;BMP180;64454;51.984;9.838;2023-02-25T03:05:51;98687.00;;;4.80
75822;BMP180;64454;51.984;9.838;2023-02-25T03:08:24;98692.00;;;4.60
75822;BMP180;64454;51.984;9.838;2023-02-25T03:10:52;98685.00;;;4.60
75822;BMP180;64454;51.984;9.838;2023-02-25T03:13:19;98691.00;;;4.70
75822;BMP180;64454;51.984;9.838;2023-02-25T03:15:48;98690.00;;;4.80
75822;BMP180;64454;51.984;9.838;2023-02-25T03:18:23;98703.00;;;4.70
75822;BMP180;64454;51.984;9.838;2023-02-25T03:20:52;98702.00;;;4.70
75822;BMP180;64454;51.984;9.838;2023-02-25T03:23:27;98703.00;;;4.80
75822;BMP180;64454;51.984;9.838;2023-02-25T03:26:01;98696.00;;;4.80
75822;BMP180;64454;51.984;9.838;2023-02-25T03:28:33;98701.00;;;4.70
75822;BMP180;64454;51.984;9.838;2023-02-25T03:31:05;98702.00;;;4.70
75822;BMP180;64454;51.984;9.838;2023-02-25T03:33:40;98708.00;;;4.50
75822;BMP180;64454;51.984;9.838;2023-02-25T03:36:18;98699.00;;;4.40
75822;BMP180;64454;51.984;9.838;2023-02-25T03:38:51;98703.00;;;4.50
75822;BMP180;64454;51.984;9.838;2023-02-25T03:41:24;98705.00;;;4.50
75822;BMP180;64454;51.984;9.838;2023-02-25T03:43:56;98710.00;;;4.50
75822;BMP180;64454;51.984;9.838;2023-02-25T03:46:26;98717.00;;;4.30
75822;BMP180;64454;51.984;9.838;2023-02-25T03:48:56;98734.00;;;4.50
75822;BMP180;64454;51.984;9.838;2023-02-25T03:51:29;98731.00;;;4.50
75822;BMP180;64454;51.984;9.838;2023-02-25T03:53:56;98740.00;;;4.50
75822;BMP180;64454;51.984;9.838;2023-02-25T03:56:23;98739.00;;;4.50
75822;BMP180;64454;51.984;9.838;2023-02-25T03:58:50;98745.00;;;4.50
75822;BMP180;64454;51.984;9.838;2023-02-25T04:01:25;98734.00;;;4.60
75822;BMP180;64454;51.984;9.838;2023-02-25T04:03:54;98738.00;;;4.50
75822;BMP180;64454;51.984;9.838;2023-02-25T04:06:22;98748.00;;;4.60
75822;BMP180;64454;51.984;9.838;2023-02-25T04:08:50;98744.00;;;4.60
75822;BMP180;64454;51.984;9.838;2023-02-25T04:11:16;98748.00;;;4.40
75822;BMP180;64454;51.984;9.838;2023-02-25T04:13:43;98749.00;;;4.50
75822;BMP180;64454;51.984;9.838;2023-02-25T04:16:10;98752.00;;;4.50
75822;BMP180;64454;51.984;9.838;2023-02-25T04:18:39;98755.00;;;4.50
75822;BMP180;64454;51.984;9.838;2023-02-25T04:21:08;98758.00;;;4.40
75822;BMP180;64454;51.984;9.838;2023-02-25T04:23:35;98768.00;;;4.50
75822;BMP180;64454;51.984;9.838;2023-02-25T04:26:02;98753.00;;;4.70
75822;BMP180;64454;51.984;9.838;2023-02-25T04:28:29;98757.00;;;4.70
75822;BMP180;64454;51.984;9.838;2023-02-25T04:30:56;98779.00;;;4.60
75822;BMP180;64454;51.984;9.838;2023-02-25T04:33:22;98771.00;;;4.60
75822;BMP180;64454;51.984;9.838;2023-02-25T04:35:49;98770.00;;;4.50
75822;BMP180;64454;51.984;9.838;2023-02-25T04:38:18;98782.00;;;4.60
75822;BMP180;64454;51.984;9.838;2023-02-25T04:40:44;98785.00;;;4.60
75822;BMP180;64454;51.984;9.838;2023-02-25T04:43:11;98795.00;;;4.50
75822;BMP180;64454;51.984;9.838;2023-02-25T04:45:38;98804.00;;;4.60
75822;BMP180;64454;51.984;9.838;2023-02-25T04:48:05;98813.00;;;4.80
75822;BMP180;64454;51.984;9.838;2023-02-25T04:50:32;98805.00;;;4.60
75822;BMP180;64454;51.984;9.838;2023-02-25T04:52:59;98809.00;;;4.40
75822;BMP180;64454;51.984;9.838;2023-02-25T04:55:29;98808.00;;;4.40
75822;BMP180;64454;51.984;9.838;2023-02-25T04:57:56;98808.00;;;4.50
75822;BMP180;64454;51.984;9.838;2023-02-25T05:00:23;98810.00;;;4.40
75822;BMP180;64454;51.984;9.838;2023-02-25T05:02:52;98806.00;;;4.40
75822;BMP180;64454;51.984;9.838;2023-02-25T05:05:19;98802.00;;;4.30
75822;BMP180;64454;51.984;9.838;2023-02-25T05:07:46;98810.00;;;4.60
75822;BMP180;64454;51.984;9.838;2023-02-25T05:10:13;98802.00;;;4.30
75822;BMP180;64454;51.984;9.838;2023-02-25T05:12:42;98811.00;;;4.30
75822;BMP180;64454;51.984;9.838;2023-02-25T05:15:10;98815.00;;;4.40
75822;BMP180;64454;51.984;9.838;2023-02-25T05:17:37;98810.00;;;4.50
75822;BMP180;64454;51.984;9.838;2023-02-25T05:20:06;98806.00;;;4.50
75822;BMP180;64454;51.984;9.838;2023-02-25T05:22:36;98798.00;;;4.50
75822;BMP180;64454;51.984;9.838;2023-02-25T05:25:04;98796.00;;;4.60
75822;BMP180;64454;51.984;9.838;2023-02-25T05:27:31;98798.00;;;4.50
75822;BMP180;64454;51.984;9.838;2023-02-25T05:30:00;98807.00;;;4.40
75822;BMP180;64454;51.984;9.838;2023-02-25T05:32:28;98808.00;;;4.50
75822;BMP180;64454;51.984;9.838;2023-02-25T05:34:55;98807.00;;;4.60
75822;BMP180;64454;51.984;9.838;2023-02-25T05:37:22;98806.00;;;4.60
75822;BMP180;64454;51.984;9.838;2023-02-25T05:39:49;98814.00;;;4.40
75822;BMP180;64454;51.984;9.838;2023-02-25T05:42:15;98817.00;;;4.60
75822;BMP180;64454;51.984;9.838;2023-02-25T05:44:42;98814.00;;;4.50
75822;BMP180;64454;51.984;9.838;2023-02-25T05:47:10;98817.00;;;4.30
75822;BMP180;64454;51.984;9.838;2023-02-25T05:49:39;98814.00;;;4.20
75822;BMP180;64454;51.984;9.838;2023-02-25T05:52:06;98820.00;;;4.50
75822;BMP180;64454;51.984;9.838;2023-02-25T05:54:33;98827.00;;;4.40
75822;BMP180;64454;51.984;9.838;2023-02-25T05:57:00;98833.00;;;4.20
75822;BMP180;64454;51.984;9.838;2023-02-25T05:59:27;98826.00;;;4.30
75822;BMP180;64454;51.984;9.838;2023-02-25T06:01:53;98840.00;;;4.40
75822;BMP180;64454;51.984;9.838;2023-02-25T06:04:22;98851.00;;;4.20
75822;BMP180;64454;51.984;9.838;2023-02-25T06:07:07;98840.00;;;4.30
75822;BMP180;64454;51.984;9.838;2023-02-25T06:09:54;98851.00;;;4.30
75822;BMP180;64454;51.984;9.838;2023-02-25T06:12:45;98857.00;;;4.40
75822;BMP180;64454;51.984;9.838;2023-02-25T06:15:32;98852.00;;;4.30
75822;BMP180;64454;51.984;9.838;2023-02-25T06:18:20;98856.00;;;4.30
75822;BMP180;64454;51.984;9.838;2023-02-25T06:20:48;98866.00;;;4.30
75822;BMP180;64454;51.984;9.838;2023-02-25T06:23:15;98869.00;;;4.20
75822;BMP180;64454;51.984;9.838;2023-02-25T06:25:41;98878.00;;;4.30
75822;BMP180;64454;51.984;9.838;2023-02-25T06:28:08;98882.00;;;4.30
75822;BMP180;64454;51.984;9.838;2023-02-25T06:30:35;98886.00;;;4.20
75822;BMP180;64454;51.984;9.838;2023-02-25T06:33:02;98886.00;;;4.30
75822;BMP180;64454;51.984;9.838;2023-02-25T06:35:29;98886.00;;;4.20
75822;BMP180;64454;51.984;9.838;2023-02-25T06:37:59;98891.00;;;4.10
75822;BMP180;64454;51.984;9.838;2023-02-25T06:40:26;98891.00;;;4.20
75822;BMP180;64454;51.984;9.838;2023-02-25T06:42:54;98893.00;;;4.30
75822;BMP180;64454;51.984;9.838;2023-02-25T06:45:20;98898.00;;;4.30
75822;BMP180;64454;51.984;9.838;2023-02-25T06:47:48;98912.00;;;4.40
75822;BMP180;64454;51.984;9.838;2023-02-25T06:50:16;98914.00;;;4.40
75822;BMP180;64454;51.984;9.838;2023-02-25T06:52:43;98922.00;;;4.20
75822;BMP180;64454;51.984;9.838;2023-02-25T06:55:11;98912.00;;;4.50
75822;BMP180;64454;51.984;9.838;2023-02-25T06:57:37;98919.00;;;4.30
75822;BMP180;64454;51.984;9.838;2023-02-25T07:00:06;98918.00;;;4.20
75822;BMP180;64454;51.984;9.838;2023-02-25T07:02:34;98923.00;;;4.40
75822;BMP180;64454;51.984;9.838;2023-02-25T07:05:00;98941.00;;;4.20
75822;BMP180;64454;51.984;9.838;2023-02-25T07:07:28;98940.00;;;4.20
75822;BMP180;64454;51.984;9.838;2023-02-25T07:09:54;98941.00;;;4.20
75822;BMP180;64454;51.984;9.838;2023-02-25T07:12:23;98944.00;;;4.20
75822;BMP180;64454;51.984;9.838;2023-02-25T07:14:49;98944.00;;;4.30
75822;BMP180;64454;51.984;9.838;2023-02-25T07:17:16;98949.00;;;4.40
75822;BMP180;64454;51.984;9.838;2023-02-25T07:19:44;98961.00;;;4.40
75822;BMP180;64454;51.984;9.838;2023-02-25T07:22:13;98965.00;;;4.20
75822;BMP180;64454;51.984;9.838;2023-02-25T07:24:40;98976.00;;;4.10
75822;BMP180;64454;51.984;9.838;2023-02-25T07:27:07;98971.00;;;4.10
75822;BMP180;64454;51.984;9.838;2023-02-25T07:29:35;98976.00;;;4.10
75822;BMP180;64454;51.984;9.838;2023-02-25T07:32:02;98984.00;;;4.20
75822;BMP180;64454;51.984;9.838;2023-02-25T07:34:29;98980.00;;;4.20
75822;BMP180;64454;51.984;9.838;2023-02-25T07:36:57;98991.00;;;4.50
75822;BMP180;64454;51.984;9.838;2023-02-25T07:39:23;98991.00;;;4.50
75822;BMP180;64454;51.984;9.838;2023-02-25T07:41:50;98999.00;;;4.40
75822;BMP180;64454;51.984;9.838;2023-02-25T07:44:18;98999.00;;;4.30
75822;BMP180;64454;51.984;9.838;2023-02-25T07:46:47;99004.00;;;4.40
75822;BMP180;64454;51.984;9.838;2023-02-25T07:49:15;98998.00;;;4.30
75822;BMP180;64454;51.984;9.838;2023-02-25T07:51:43;99006.00;;;4.30
75822;BMP180;64454;51.984;9.838;2023-02-25T07:54:10;99008.00;;;4.40
75822;BMP180;64454;51.984;9.838;2023-02-25T07:56:37;99008.00;;;4.30
75822;BMP180;64454;51.984;9.838;2023-02-25T07:59:03;99014.00;;;4.40
75822;BMP180;64454;51.984;9.838;2023-02-25T08:01:32;99021.00;;;4.30
75822;BMP180;64454;51.984;9.838;2023-02-25T08:04:03;99012.00;;;4.40
75822;BMP180;64454;51.984;9.838;2023-02-25T08:06:30;99013.00;;;4.50
75822;BMP180;64454;51.984;9.838;2023-02-25T08:08:57;99009.00;;;4.60
75822;BMP180;64454;51.984;9.838;2023-02-25T08:11:25;99015.00;;;4.50
75822;BMP180;64454;51.984;9.838;2023-02-25T08:13:53;99024.00;;;4.70
75822;BMP180;64454;51.984;9.838;2023-02-25T08:16:21;99021.00;;;4.70
75822;BMP180;64454;51.984;9.838;2023-02-25T08:18:48;99012.00;;;4.70
75822;BMP180;64454;51.984;9.838;2023-02-25T08:21:20;99028.00;;;4.50
75822;BMP180;64454;51.984;9.838;2023-02-25T08:23:47;99027.00;;;4.60
75822;BMP180;64454;51.984;9.838;2023-02-25T08:26:15;99037.00;;;4.90
75822;BMP180;64454;51.984;9.838;2023-02-25T08:28:44;99032.00;;;4.90
75822;BMP180;64454;51.984;9.838;2023-02-25T08:31:11;99023.00;;;4.90
75822;BMP180;64454;51.984;9.838;2023-02-25T08:33:40;99025.00;;;5.10
75822;BMP180;64454;51.984;9.838;2023-02-25T08:36:10;99018.00;;;5.40
75822;BMP180;64454;51.984;9.838;2023-02-25T08:38:39;99019.00;;;5.40
75822;BMP180;64454;51.984;9.838;2023-02-25T08:41:06;99015.00;;;5.30
75822;BMP180;64454;51.984;9.838;2023-02-25T08:43:34;99030.00;;;5.70
75822;BMP180;64454;51.984;9.838;2023-02-25T08:46:02;99025.00;;;5.70
75822;BMP180;64454;51.984;9.838;2023-02-25T08:48:29;99032.00;;;5.80
75822;BMP180;64454;51.984;9.838;2023-02-25T08:50:55;99027.00;;;6.20
75822;BMP180;64454;51.984;9.838;2023-02-25T08:53:22;99024.00;;;6.10
75822;BMP180;64454;51.984;9.838;2023-02-25T08:55:50;99011.00;;;6.20
75822;BMP180;64454;51.984;9.838;2023-02-25T08:58:18;99003.00;;;7.10
75822;BMP180;64454;51.984;9.838;2023-02-25T09:00:45;99001.00;;;8.10
75822;BMP180;64454;51.984;9.838;2023-02-25T09:03:14;99007.00;;;8.70
75822;BMP180;64454;51.984;9.838;2023-02-25T09:05:41;99007.00;;;9.50
75822;BMP180;64454;51.984;9.838;2023-02-25T09:08:08;99032.00;;;9.90
75822;BMP180;64454;51.984;9.838;2023-02-25T09:10:36;99001.00;;;9.90
75822;BMP180;64454;51.984;9.838;2023-02-25T09:13:04;99011.00;;;10.60
75822;BMP180;64454;51.984;9.838;2023-02-25T09:15:31;99004.00;;;10.80
75822;BMP180;64454;51.984;9.838;2023-02-25T09:17:58;99021.00;;;10.90
75822;BMP180;64454;51.984;9.838;2023-02-25T09:20:24;99037.00;;;10.90
75822;BMP180;64454;51.984;9.838;2023-02-25T09:22:51;99035.00;;;11.30
75822;BMP180;64454;51.984;9.838;2023-02-25T09:25:19;99033.00;;;9.10
75822;BMP180;64454;51.984;9.838;2023-02-25T09:27:45;99030.00;;;8.50
75822;BMP180;64454;51.984;9.838;2023-02-25T09:30:14;99028.00;;;9.50
75822;BMP180;64454;51.984;9.838;2023-02-25T09:32:41;99051.00;;;8.60
75822;BMP180;64454;51.984;9.838;2023-02-25T09:35:10;99065.00;;;7.50
75822;BMP180;64454;51.984;9.838;2023-02-25T09:37:37;99049.00;;;7.90
75822;BMP180;64454;51.984;9.838;2023-02-25T09:40:05;99063.00;;;7.40
75822;BMP180;64454;51.984;9.838;2023-02-25T09:42:48;99072.00;;;7.10
75822;BMP180;64454;51.984;9.838;2023-02-25T09:45:23;99071.00;;;6.80
75822;BMP180;64454;51.984;9.838;2023-02-25T09:47:57;99074.00;;;6.70
75822;BMP180;64454;51.984;9.838;2023-02-25T09:50:30;99069.00;;;6.20
75822;BMP180;64454;51.984;9.838;2023-02-25T09:53:05;99074.00;;;6.20
75822;BMP180;64454;51.984;9.838;2023-02-25T09:55:38;99082.00;;;6.30
75822;BMP180;64454;51.984;9.838;2023-02-25T09:58:13;99095.00;;;6.20
75822;BMP180;64454;51.984;9.838;2023-02-25T10:00:49;99103.00;;;6.10
75822;BMP180;64454;51.984;9.838;2023-02-25T10:03:24;99105.00;;;6.50
75822;BMP180;64454;51.984;9.838;2023-02-25T10:06:02;99108.00;;;6.20
75822;BMP180;64454;51.984;9.838;2023-02-25T10:08:37;99115.00;;;5.90
75822;BMP180;64454;51.984;9.838;2023-02-25T10:11:16;99124.00;;;5.80
75822;BMP180;64454;51.984;9.838;2023-02-25T10:13:51;99123.00;;;5.60
75822;BMP180;64454;51.984;9.838;2023-02-25T10:16:40;99127.00;;;5.60
75822;BMP180;64454;51.984;9.838;2023-02-25T10:19:25;99140.00;;;5.50
75822;BMP180;64454;51.984;9.838;2023-02-25T10:22:10;99133.00;;;5.90
75822;BMP180;64454;51.984;9.838;2023-02-25T10:24:46;99124.00;;;5.90
75822;BMP180;64454;51.984;9.838;2023-02-25T10:27:20;99132.00;;;6.10
75822;BMP180;64454;51.984;9.838;2023-02-25T10:29:51;99136.00;;;6.40
75822;BMP180;64454;51.984;9.838;2023-02-25T10:32:24;99140.00;;;6.20
75822;BMP180;64454;51.984;9.838;2023-02-25T10:34:55;99146.00;;;6.30
75822;BMP180;64454;51.984;9.838;2023-02-25T10:37:30;99155.00;;;6.00
75822;BMP180;64454;51.984;9.838;2023-02-25T10:40:01;99152.00;;;6.00
75822;BMP180;64454;51.984;9.838;2023-02-25T10:42:30;99163.00;;;5.90
75822;BMP180;64454;51.984;9.838;2023-02-25T10:45:05;99191.00;;;5.60
75822;BMP180;64454;51.984;9.838;2023-02-25T10:47:37;99207.00;;;4.80
75822;BMP180;64454;51.984;9.838;2023-02-25T10:50:21;99220.00;;;4.30
75822;BMP180;64454;51.984;9.838;2023-02-25T10:52:56;99220.00;;;3.50
75822;BMP180;64454;51.984;9.838;2023-02-25T10:55:43;99225.00;;;3.90
75822;BMP180;64454;51.984;9.838;2023-02-25T10:58:36;99222.00;;;4.00
75822;BMP180;64454;51.984;9.838;2023-02-25T11:01:09;99226.00;;;3.80
75822;BMP180;64454;51.984;9.838;2023-02-25T11:03:52;99231.00;;;3.80
75822;BMP180;64454;51.984;9.838;2023-02-25T11:06:24;99236.00;;;4.30
75822;BMP180;64454;51.984;9.838;2023-02-25T11:08:54;99227.00;;;4.10
75822;BMP180;64454;51.984;9.838;2023-02-25T11:11:25;99226.00;;;4.30
75822;BMP180;64454;51.984;9.838;2023-02-25T11:13:59;99233.00;;;4.30
75822;BMP180;64454;51.984;9.838;2023-02-25T11:16:27;99231.00;;;4.60
75822;BMP180;64454;51.984;9.838;2023-02-25T11:19:00;99230.00;;;4.40
75822;BMP180;64454;51.984;9.838;2023-02-25T11:21:34;99230.00;;;4.30
75822;BMP180;64454;51.984;9.838;2023-02-25T11:24:11;99224.00;;;4.60
75822;BMP180;64454;51.984;9.838;2023-02-25T11:26:44;99235.00;;;4.80
75822;BMP180;64454;51.984;9.838;2023-02-25T11:29:17;99245.00;;;5.10
75822;BMP180;64454;51.984;9.838;2023-02-25T11:31:49;99243.00;;;5.30
75822;BMP180;64454;51.984;9.838;2023-02-25T11:34:23;99239.00;;;5.50
75822;BMP180;64454;51.984;9.838;2023-02-25T11:36:52;99233.00;;;5.40
75822;BMP180;64454;51.984;9.838;2023-02-25T11:39:23;99241.00;;;5.10
75822;BMP180;64454;51.984;9.838;2023-02-25T11:41:53;99246.00;;;5.70
75822;BMP180;64454;51.984;9.838;2023-02-25T11:44:26;99251.00;;;5.50
75822;BMP180;64454;51.984;9.838;2023-02-25T11:47:02;99248.00;;;5.50
75822;BMP180;64454;51.984;9.838;2023-02-25T11:50:08;99252.00;;;5.20
75822;BMP180;64454;51.984;9.838;2023-02-25T11:52:42;99247.00;;;5.00
75822;BMP180;64454;51.984;9.838;2023-02-25T11:55:23;99263.00;;;5.00
75822;BMP180;64454;51.984;9.838;2023-02-25T11:58:09;99261.00;;;4.80
75822;BMP180;64454;51.984;9.838;2023-02-25T12:00:49;99264.00;;;4.30
75822;BMP180;64454;51.984;9.838;2023-02-25T12:10:03;99289.00;;;4.60
75822;BMP180;64454;51.984;9.838;2023-02-25T12:19:53;99278.00;;;5.20
75822;BMP180;64454;51.984;9.838;2023-02-25T12:23:15;99260.00;;;5.90
75822;BMP180;64454;51.984;9.838;2023-02-25T12:25:56;99251.00;;;7.20
75822;BMP180;64454;51.984;9.838;2023-02-25T12:28:49;99246.00;;;8.50
75822;BMP180;64454;51.984;9.838;2023-02-25T12:35:12;99260.00;;;10.30
75822;BMP180;64454;51.984;9.838;2023-02-25T12:41:34;99273.00;;;8.80
75822;BMP180;64454;51.984;9.838;2023-02-25T12:44:36;99272.00;;;8.00
75822;BMP180;64454;51.984;9.838;2023-02-25T12:47:24;99273.00;;;7.20
75822;BMP180;64454;51.984;9.838;2023-02-25T12:50:18;99277.00;;;6.70
75822;BMP180;64454;51.984;9.838;2023-02-25T12:53:18;99287.00;;;6.60
75822;BMP180;64454;51.984;9.838;2023-02-25T12:56:15;99291.00;;;6.20
75822;BMP180;64454;51.984;9.838;2023-02-25T12:59:12;99292.00;;;6.10
75822;BMP180;64454;51.984;9.838;2023-02-25T13:02:10;99293.00;;;6.10
75822;BMP180;64454;51.984;9.838;2023-02-25T13:05:04;99297.00;;;6.10
75822;BMP180;64454;51.984;9.838;2023-02-25T13:08:04;99317.00;;;6.00
75822;BMP180;64454;51.984;9.838;2023-02-25T13:10:45;99305.00;;;5.50
75822;BMP180;64454;51.984;9.838;2023-02-25T13:13:48;99322.00;;;5.40
75822;BMP180;64454;51.984;9.838;2023-02-25T13:16:39;99321.00;;;5.50
75822;BMP180;64454;51.984;9.838;2023-02-25T13:19:53;99327.00;;;5.30
75822;BMP180;64454;51.984;9.838;2023-02-25T13:22:42;99343.00;;;5.00
75822;BMP180;64454;51.984;9.838;2023-02-25T13:25:36;99333.00;;;5.00
75822;BMP180;64454;51.984;9.838;2023-02-25T13:28:24;99341.00;;;5.30
75822;BMP180;64454;51.984;9.838;2023-02-25T13:30:58;99336.00;;;5.40
75822;BMP180;64454;51.984;9.838;2023-02-25T13:33:52;99330.00;;;6.00
75822;BMP180;64454;51.984;9.838;2023-02-25T13:36:41;99339.00;;;6.00
75822;BMP180;64454;51.984;9.838;2023-02-25T13:39:34;99330.00;;;6.60
75822;BMP180;64454;51.984;9.838;2023-02-25T13:42:39;99342.00;;;8.00
75822;BMP180;64454;51.984;9.838;2023-02-25T13:45:48;99334.00;;;8.80
75822;BMP180;64454;51.984;9.838;2023-02-25T13:49:08;99317.00;;;9.10
75822;BMP180;64454;51.984;9.838;2023-02-25T13:52:09;99347.00;;;8.90
75822;BMP180;64454;51.984;9.838;2023-02-25T13:55:23;99348.00;;;8.30
75822;BMP180;64454;51.984;9.838;2023-02-25T13:58:25;99356.00;;;7.80
75822;BMP180;64454;51.984;9.838;2023-02-25T14:01:25;99357.00;;;7.60
75822;BMP180;64454;51.984;9.838;2023-02-25T14:04:34;99359.00;;;6.90
75822;BMP180;64454;51.984;9.838;2023-02-25T14:07:20;99371.00;;;6.10
75822;BMP180;64454;51.984;9.838;2023-02-25T14:10:02;99374.00;;;5.80
75822;BMP180;64454;51.984;9.838;2023-02-25T14:12:51;99381.00;;;5.70
75822;BMP180;64454;51.984;9.838;2023-02-25T14:15:34;99380.00;;;6.00
75822;BMP180;64454;51.984;9.838;2023-02-25T14:18:30;99392.00;;;5.80
75822;BMP180;64454;51.984;9.838;2023-02-25T14:21:27;99395.00;;;5.80
75822;BMP180;64454;51.984;9.838;2023-02-25T14:24:09;99397.00;;;6.00
75822;BMP180;64454;51.984;9.838;2023-02-25T14:26:57;99406.00;;;6.30
75822;BMP180;64454;51.984;9.838;2023-02-25T14:29:36;99401.00;;;6.40
75822;BMP180;64454;51.984;9.838;2023-02-25T14:32:28;99387.00;;;6.00
75822;BMP180;64454;51.984;9.838;2023-02-25T14:35:28;99411.00;;;6.10
75822;BMP180;64454;51.984;9.838;2023-02-25T14:38:08;99399.00;;;5.90
75822;BMP180;64454;51.984;9.838;2023-02-25T14:40:42;99412.00;;;6.40
75822;BMP180;64454;51.984;9.838;2023-02-25T14:43:26;99406.00;;;6.70
75822;BMP180;64454;51.984;9.838;2023-02-25T14:46:00;99421.00;;;7.00
75822;BMP180;64454;51.984;9.838;2023-02-25T14:48:39;99416.00;;;6.70
75822;BMP180;64454;51.984;9.838;2023-02-25T14:55:06;99435.00;;;6.70
75822;BMP180;64454;51.984;9.838;2023-02-25T14:58:20;99439.00;;;6.50
75822;BMP180;64454;51.984;9.838;2023-02-25T15:01:11;99452.00;;;6.20
75822;BMP180;64454;51.984;9.838;2023-02-25T15:04:10;99452.00;;;5.60
75822;BMP180;64454;51.984;9.838;2023-02-25T15:07:10;99457.00;;;5.70
75822;BMP180;64454;51.984;9.838;2023-02-25T15:10:06;99461.00;;;5.50
75822;BMP180;64454;51.984;9.838;2023-02-25T15:13:03;99462.00;;;5.50
75822;BMP180;64454;51.984;9.838;2023-02-25T15:16:00;99466.00;;;5.50
75822;BMP180;64454;51.984;9.838;2023-02-25T15:19:06;99478.00;;;5.20
75822;BMP180;64454;51.984;9.838;2023-02-25T15:21:39;99485.00;;;5.10
75822;BMP180;64454;51.984;9.838;2023-02-25T15:24:35;99491.00;;;5.20
75822;BMP180;64454;51.984;9.838;2023-02-25T15:27:47;99500.00;;;5.50
75822;BMP180;64454;51.984;9.838;2023-02-25T15:30:17;99493.00;;;5.20
75822;BMP180;64454;51.984;9.838;2023-02-25T15:32:55;99500.00;;;4.90